createdAt,value
2019-06-26T00:02:26.264Z,99.14
2019-06-26T00:04:52.601Z,100.00
2019-06-26T00:07:18.908Z,100.00
2019-06-26T00:09:45.245Z,100.00
2019-06-26T00:12:11.551Z,100.00
2019-06-26T00:14:39.027Z,100.00
2019-06-26T00:17:04.196Z,100.00
2019-06-26T00:19:30.534Z,100.00
2019-06-26T00:21:56.834Z,100.00
2019-06-26T00:24:23.145Z,100.00
2019-06-26T00:26:49.484Z,99.09
2019-06-26T00:29:15.833Z,99.12
2019-06-26T00:31:42.161Z,99.29
2019-06-26T00:34:08.475Z,99.32
2019-06-26T00:36:34.803Z,99.45
2019-06-26T00:39:01.119Z,99.62
2019-06-26T00:41:27.450Z,99.96
2019-06-26T00:43:53.774Z,100.00
2019-06-26T00:46:20.108Z,100.00
2019-06-26T00:48:46.418Z,100.00
2019-06-26T00:51:12.724Z,100.00
2019-06-26T00:53:39.053Z,99.96
2019-06-26T00:56:05.420Z,99.58
2019-06-26T00:58:31.708Z,98.98
2019-06-26T01:00:58.019Z,99.26
2019-06-26T01:03:24.333Z,99.30
2019-06-26T01:05:50.668Z,99.43
2019-06-26T01:08:16.983Z,99.15
2019-06-26T01:10:43.317Z,99.11
2019-06-26T01:13:09.636Z,99.08
2019-06-26T01:15:35.940Z,99.00
2019-06-26T01:18:02.269Z,99.69
2019-06-26T01:20:28.582Z,100.00
2019-06-26T01:22:54.893Z,100.00
2019-06-26T01:25:21.230Z,100.00
2019-06-26T01:27:47.536Z,100.00
2019-06-26T01:30:13.878Z,100.00
2019-06-26T01:32:40.180Z,99.34
2019-06-26T01:35:06.516Z,98.87
2019-06-26T01:37:32.823Z,98.98
2019-06-26T01:39:59.162Z,98.92
2019-06-26T01:42:25.487Z,98.82
2019-06-26T01:44:51.797Z,98.58
2019-06-26T01:47:18.130Z,99.04
2019-06-26T01:49:44.445Z,98.78
2019-06-26T01:52:10.775Z,98.19
2019-06-26T01:54:37.096Z,97.72
2019-06-26T01:57:03.424Z,97.81
2019-06-26T01:59:29.750Z,97.63
2019-06-26T02:01:56.042Z,97.85
2019-06-26T02:04:22.366Z,97.86
2019-06-26T02:06:48.673Z,98.39
2019-06-26T02:09:15.001Z,98.71
2019-06-26T02:11:41.305Z,98.24
2019-06-26T02:14:07.630Z,98.44
2019-06-26T02:16:33.938Z,98.12
2019-06-26T02:19:00.269Z,97.89
2019-06-26T02:21:26.597Z,97.95
2019-06-26T02:23:52.902Z,98.23
2019-06-26T02:26:19.238Z,98.71
2019-06-26T02:28:45.552Z,98.69
2019-06-26T02:31:11.855Z,98.62
2019-06-26T02:33:38.186Z,99.28
2019-06-26T02:36:04.496Z,98.70
2019-06-26T02:38:30.829Z,98.26
2019-06-26T02:40:57.156Z,97.68
2019-06-26T02:43:23.483Z,97.33
2019-06-26T02:45:49.803Z,97.15
2019-06-26T02:48:16.107Z,96.84
2019-06-26T02:50:42.432Z,97.05
2019-06-26T02:53:08.733Z,96.37
2019-06-26T02:55:35.066Z,96.25
2019-06-26T02:58:01.365Z,96.44
2019-06-26T03:00:27.683Z,96.71
2019-06-26T03:02:54.001Z,96.52
2019-06-26T03:05:20.311Z,96.69
2019-06-26T03:07:46.704Z,97.03
2019-06-26T03:10:13.033Z,96.87
2019-06-26T03:12:39.345Z,96.90
2019-06-26T03:15:09.196Z,97.00
2019-06-26T03:17:31.979Z,96.81
2019-06-26T03:19:58.287Z,95.93
2019-06-26T03:22:24.610Z,95.94
2019-06-26T03:24:50.914Z,95.90
2019-06-26T03:27:17.249Z,95.53
2019-06-26T03:29:43.554Z,95.56
2019-06-26T03:32:09.880Z,95.51
2019-06-26T03:34:36.189Z,96.04
2019-06-26T03:37:02.521Z,95.55
2019-06-26T03:39:28.858Z,94.81
2019-06-26T03:41:55.164Z,94.42
2019-06-26T03:44:21.476Z,94.21
2019-06-26T03:46:47.787Z,93.97
2019-06-26T03:49:14.092Z,93.83
2019-06-26T03:51:40.440Z,92.67
2019-06-26T03:54:06.722Z,92.04
2019-06-26T03:56:33.059Z,91.63
2019-06-26T03:58:59.386Z,92.53
2019-06-26T04:01:25.688Z,91.77
2019-06-26T04:03:52.028Z,91.21
2019-06-26T04:06:18.328Z,90.91
2019-06-26T04:08:44.730Z,89.61
2019-06-26T04:11:10.965Z,90.76
2019-06-26T04:13:37.308Z,90.50
2019-06-26T04:16:03.614Z,89.79
2019-06-26T04:18:29.920Z,88.88
2019-06-26T04:20:56.320Z,88.67
2019-06-26T04:23:22.949Z,87.81
2019-06-26T04:25:48.957Z,87.21
2019-06-26T04:28:15.262Z,87.34
2019-06-26T04:30:41.583Z,87.88
2019-06-26T04:33:07.895Z,87.46
2019-06-26T04:35:34.221Z,88.00
2019-06-26T04:38:00.547Z,87.94
2019-06-26T04:40:26.851Z,87.36
2019-06-26T04:42:53.182Z,87.51
2019-06-26T04:45:19.516Z,87.32
2019-06-26T04:47:45.846Z,86.50
2019-06-26T04:50:12.140Z,86.47
2019-06-26T04:52:38.471Z,86.30
2019-06-26T04:55:04.772Z,86.15
2019-06-26T04:57:31.079Z,85.05
2019-06-26T04:59:57.424Z,85.48
2019-06-26T05:02:23.748Z,86.15
2019-06-26T05:04:50.092Z,86.15
2019-06-26T05:07:16.421Z,85.02
2019-06-26T05:09:42.721Z,86.25
2019-06-26T05:12:09.791Z,86.00
2019-06-26T05:14:36.093Z,85.69
2019-06-26T05:17:02.425Z,86.51
2019-06-26T05:19:28.738Z,86.48
2019-06-26T05:21:55.156Z,85.31
2019-06-26T05:24:21.485Z,83.69
2019-06-26T05:26:47.799Z,82.50
2019-06-26T05:29:14.125Z,83.65
2019-06-26T05:31:40.433Z,84.54
2019-06-26T05:34:10.520Z,82.96
2019-06-26T05:36:33.095Z,81.42
2019-06-26T05:38:59.402Z,81.80
2019-06-26T05:41:25.733Z,82.42
2019-06-26T05:43:52.110Z,82.46
2019-06-26T05:46:30.564Z,82.43
2019-06-26T05:48:44.696Z,79.73
2019-06-26T05:51:10.996Z,74.08
2019-06-26T05:53:37.296Z,68.24
2019-06-26T05:56:03.597Z,65.65
2019-06-26T05:58:29.922Z,65.50
2019-06-26T06:00:56.222Z,64.13
2019-06-26T06:03:22.548Z,59.96
2019-06-26T06:05:48.858Z,59.73
2019-06-26T06:08:15.200Z,61.75
2019-06-26T06:10:41.519Z,61.70
2019-06-26T06:13:07.887Z,57.57
2019-06-26T06:15:34.212Z,55.93
2019-06-26T06:18:00.516Z,55.47
2019-06-26T06:20:26.843Z,56.57
2019-06-26T06:22:53.152Z,51.90
2019-06-26T06:25:19.475Z,54.47
2019-06-26T06:27:45.794Z,57.31
2019-06-26T06:30:12.100Z,57.01
2019-06-26T06:32:38.428Z,55.27
2019-06-26T06:35:04.776Z,53.26
2019-06-26T06:37:31.147Z,56.59
2019-06-26T06:39:57.471Z,57.73
2019-06-26T06:42:23.862Z,61.52
2019-06-26T06:44:50.178Z,61.90
2019-06-26T06:47:16.483Z,57.33
2019-06-26T06:49:42.814Z,54.61
2019-06-26T06:52:09.134Z,52.67
2019-06-26T06:54:35.424Z,54.16
2019-06-26T06:57:01.748Z,51.30
2019-06-26T06:59:28.094Z,53.05
2019-06-26T07:01:54.420Z,50.09
2019-06-26T07:04:20.724Z,51.07
2019-06-26T07:06:47.060Z,50.43
2019-06-26T07:09:13.363Z,51.54
2019-06-26T07:11:39.711Z,52.73
2019-06-26T07:14:06.052Z,55.58
2019-06-26T07:16:32.353Z,55.26
2019-06-26T07:18:58.687Z,55.09
2019-06-26T07:21:24.985Z,53.46
2019-06-26T07:23:51.311Z,56.85
2019-06-26T07:26:17.618Z,61.60
2019-06-26T07:28:43.949Z,60.44
2019-06-26T07:31:10.331Z,58.06
2019-06-26T07:33:36.719Z,53.30
2019-06-26T07:36:03.040Z,56.37
2019-06-26T07:38:29.351Z,56.07
2019-06-26T07:40:55.693Z,54.50
2019-06-26T07:43:22.007Z,57.22
2019-06-26T07:45:48.309Z,59.28
2019-06-26T07:48:14.652Z,62.54
2019-06-26T07:50:41.000Z,63.17
2019-06-26T07:53:07.323Z,62.18
2019-06-26T07:55:33.656Z,61.97
2019-06-26T07:57:59.985Z,61.03
2019-06-26T08:00:26.316Z,59.10
2019-06-26T08:02:52.620Z,60.60
2019-06-26T08:05:18.955Z,59.87
2019-06-26T08:07:45.253Z,56.70
2019-06-26T08:10:11.586Z,54.84
2019-06-26T08:12:37.903Z,53.14
2019-06-26T08:15:04.209Z,53.34
2019-06-26T08:17:30.540Z,52.67
2019-06-26T08:19:56.862Z,51.55
2019-06-26T08:22:23.216Z,51.30
2019-06-26T08:24:49.545Z,52.33
2019-06-26T08:27:15.852Z,50.78
2019-06-26T08:29:42.179Z,50.67
2019-06-26T08:32:08.496Z,51.08
2019-06-26T08:34:34.818Z,50.82
2019-06-26T08:37:01.137Z,51.13
2019-06-26T08:39:27.446Z,54.06
2019-06-26T08:41:53.766Z,53.36
2019-06-26T08:44:20.085Z,53.10
2019-06-26T08:46:46.436Z,51.40
2019-06-26T08:49:24.882Z,48.84
2019-06-26T08:51:39.056Z,52.35
2019-06-26T08:54:05.383Z,53.97
2019-06-26T08:56:31.684Z,51.35
2019-06-26T08:58:58.021Z,49.69
2019-06-26T09:01:24.342Z,48.10
2019-06-26T09:03:50.650Z,47.14
2019-06-26T09:06:16.980Z,47.54
2019-06-26T09:08:43.293Z,48.09
2019-06-26T09:11:09.601Z,47.56
2019-06-26T09:13:35.934Z,47.94
2019-06-26T09:16:02.252Z,46.78
2019-06-26T09:18:35.344Z,48.38
2019-06-26T09:20:54.918Z,50.25
2019-06-26T09:23:21.238Z,50.66
2019-06-26T09:25:47.544Z,52.08
2019-06-26T09:28:13.870Z,54.82
2019-06-26T09:30:40.192Z,56.95
2019-06-26T09:33:06.488Z,58.77
2019-06-26T09:35:32.818Z,58.87
2019-06-26T09:37:59.155Z,57.33
2019-06-26T09:40:25.452Z,57.58
2019-06-26T09:42:51.758Z,57.92
2019-06-26T09:45:18.088Z,57.87
2019-06-26T09:47:44.394Z,53.64
2019-06-26T09:50:10.700Z,51.64
2019-06-26T09:52:37.023Z,51.10
2019-06-26T09:55:03.324Z,52.18
2019-06-26T09:57:29.651Z,54.33
2019-06-26T09:59:55.957Z,54.45
2019-06-26T10:02:22.306Z,50.82
2019-06-26T10:04:48.612Z,50.05
2019-06-26T10:07:14.941Z,48.40
2019-06-26T10:09:41.266Z,47.11
2019-06-26T10:12:07.571Z,46.79
2019-06-26T10:14:46.577Z,45.96
2019-06-26T10:17:00.215Z,46.09
2019-06-26T10:19:26.533Z,45.91
2019-06-26T10:21:52.859Z,46.52
2019-06-26T10:24:19.169Z,44.72
2019-06-26T10:26:45.498Z,44.83
2019-06-26T10:29:11.820Z,44.03
2019-06-26T10:31:38.144Z,45.14
2019-06-26T10:34:04.475Z,44.40
2019-06-26T10:36:30.789Z,45.27
2019-06-26T10:38:57.112Z,45.50
2019-06-26T10:41:23.421Z,45.31
2019-06-26T10:43:49.755Z,48.33
2019-06-26T10:46:16.059Z,50.71
2019-06-26T10:48:42.373Z,52.30
2019-06-26T10:51:08.731Z,52.90
2019-06-26T10:53:35.033Z,53.21
2019-06-26T10:56:01.368Z,52.11
2019-06-26T10:58:27.679Z,50.62
2019-06-26T11:00:53.997Z,50.42
2019-06-26T11:03:20.300Z,49.81
2019-06-26T11:05:46.659Z,48.65
2019-06-26T11:08:12.952Z,49.17
2019-06-26T11:10:39.270Z,50.18
2019-06-26T11:13:05.591Z,51.00
2019-06-26T11:15:31.893Z,52.23
2019-06-26T11:17:58.215Z,52.58
2019-06-26T11:20:24.524Z,52.36
2019-06-26T11:22:50.872Z,52.07
2019-06-26T11:25:17.168Z,51.81
2019-06-26T11:27:43.461Z,52.20
2019-06-26T11:30:09.807Z,50.84
2019-06-26T11:32:36.130Z,51.66
2019-06-26T11:35:02.580Z,50.80
2019-06-26T11:37:28.809Z,50.58
2019-06-26T11:39:55.164Z,51.14
2019-06-26T11:42:21.456Z,49.93
2019-06-26T11:44:47.740Z,49.93
2019-06-26T11:47:14.056Z,48.62
2019-06-26T11:49:40.385Z,49.89
2019-06-26T11:52:06.706Z,49.92
2019-06-26T11:54:33.008Z,49.73
2019-06-26T11:56:59.317Z,50.12
2019-06-26T11:59:25.638Z,49.31
2019-06-26T12:01:51.971Z,50.47
2019-06-26T12:04:18.281Z,50.37
2019-06-26T12:06:46.082Z,51.27
2019-06-26T12:09:10.905Z,51.30
2019-06-26T12:11:37.240Z,51.37
2019-06-26T12:14:03.542Z,51.88
2019-06-26T12:16:29.888Z,50.29
2019-06-26T12:18:56.193Z,51.09
2019-06-26T12:21:22.517Z,51.80
2019-06-26T12:23:48.821Z,51.00
2019-06-26T12:26:15.128Z,50.61
2019-06-26T12:28:41.451Z,50.68
2019-06-26T12:31:07.762Z,49.69
2019-06-26T12:33:34.093Z,48.80
2019-06-26T12:36:00.404Z,49.58
2019-06-26T12:38:26.732Z,50.71
2019-06-26T12:40:53.036Z,50.95
2019-06-26T12:43:19.368Z,50.74
2019-06-26T12:45:45.692Z,50.63
2019-06-26T12:48:15.206Z,51.32
2019-06-26T12:50:38.321Z,51.34
2019-06-26T12:53:04.620Z,51.07
2019-06-26T12:55:33.025Z,48.68
2019-06-26T12:58:11.739Z,49.21
2019-06-26T13:00:23.580Z,49.02
2019-06-26T13:02:49.888Z,48.18
2019-06-26T13:05:16.210Z,49.78
2019-06-26T13:07:42.517Z,49.72
2019-06-26T13:10:08.840Z,50.04
2019-06-26T13:12:35.150Z,49.84
2019-06-26T13:15:01.479Z,50.35
2019-06-26T13:17:27.808Z,48.76
2019-06-26T13:19:54.142Z,48.13
2019-06-26T13:22:20.443Z,47.44
2019-06-26T13:24:46.734Z,45.20
2019-06-26T13:27:13.064Z,44.81
2019-06-26T13:29:39.369Z,44.00
2019-06-26T13:32:05.701Z,42.57
2019-06-26T13:34:32.022Z,41.88
2019-06-26T13:36:58.329Z,41.83
2019-06-26T13:39:24.660Z,44.67
2019-06-26T13:41:50.964Z,47.92
2019-06-26T13:44:17.269Z,49.64
2019-06-26T13:46:43.611Z,50.64
2019-06-26T13:49:09.921Z,51.33
2019-06-26T13:51:36.354Z,52.39
2019-06-26T13:54:02.592Z,52.80
2019-06-26T13:56:28.910Z,52.23
2019-06-26T13:58:55.212Z,52.17
2019-06-26T14:01:23.147Z,52.77
2019-06-26T14:03:47.870Z,52.05
2019-06-26T14:06:14.188Z,51.72
2019-06-26T14:08:40.560Z,52.38
2019-06-26T14:11:07.662Z,52.85
2019-06-26T14:13:33.168Z,52.70
2019-06-26T14:15:59.492Z,52.19
2019-06-26T14:18:25.819Z,52.59
2019-06-26T14:20:52.144Z,53.14
2019-06-26T14:23:18.475Z,53.35
2019-06-26T14:25:44.783Z,53.18
2019-06-26T14:28:11.123Z,53.02
2019-06-26T14:30:37.430Z,52.23
2019-06-26T14:33:03.755Z,52.68
2019-06-26T14:35:30.055Z,52.60
2019-06-26T14:37:56.388Z,52.54
2019-06-26T14:40:22.692Z,52.63
2019-06-26T14:42:49.178Z,53.49
2019-06-26T14:45:15.324Z,53.34
2019-06-26T14:47:41.630Z,52.66
2019-06-26T14:50:07.969Z,53.61
2019-06-26T14:52:35.222Z,53.08
2019-06-26T14:55:00.615Z,53.58
2019-06-26T14:57:26.924Z,53.01
2019-06-26T14:59:53.247Z,54.32
2019-06-26T15:02:19.571Z,54.14
2019-06-26T15:04:46.238Z,54.17
2019-06-26T15:07:12.214Z,54.71
2019-06-26T15:09:38.518Z,54.53
2019-06-26T15:12:04.856Z,54.49
2019-06-26T15:14:31.161Z,54.74
2019-06-26T15:16:57.490Z,54.44
2019-06-26T15:19:23.799Z,55.19
2019-06-26T15:21:58.240Z,55.33
2019-06-26T15:24:16.479Z,55.81
2019-06-26T15:26:42.782Z,56.21
2019-06-26T15:29:09.118Z,56.50
2019-06-26T15:31:35.436Z,56.69
2019-06-26T15:34:01.755Z,55.83
2019-06-26T15:36:28.082Z,55.98
2019-06-26T15:38:54.388Z,56.09
2019-06-26T15:41:20.704Z,55.97
2019-06-26T15:43:47.045Z,56.26
2019-06-26T15:46:13.338Z,56.47
2019-06-26T15:48:39.746Z,56.59
2019-06-26T15:51:05.965Z,56.36
2019-06-26T15:53:32.295Z,56.73
2019-06-26T15:55:58.596Z,56.99
2019-06-26T15:58:24.927Z,56.89
2019-06-26T16:00:51.245Z,56.79
2019-06-26T16:03:17.552Z,57.12
2019-06-26T16:05:43.874Z,56.94
2019-06-26T16:08:10.181Z,56.92
2019-06-26T16:10:36.497Z,57.42
2019-06-26T16:13:02.825Z,57.28
2019-06-26T16:15:29.151Z,57.24
2019-06-26T16:17:55.457Z,57.17
2019-06-26T16:20:21.759Z,57.79
2019-06-26T16:22:48.127Z,58.03
2019-06-26T16:25:14.427Z,57.99
2019-06-26T16:27:40.751Z,58.22
2019-06-26T16:30:07.072Z,58.81
2019-06-26T16:32:33.407Z,58.72
2019-06-26T16:34:59.721Z,59.19
2019-06-26T16:37:26.051Z,59.49
2019-06-26T16:39:52.375Z,59.36
2019-06-26T16:42:18.682Z,59.56
2019-06-26T16:44:45.008Z,59.89
2019-06-26T16:47:11.312Z,60.24
2019-06-26T16:49:37.627Z,60.48
2019-06-26T16:52:04.040Z,60.40
2019-06-26T16:54:30.257Z,60.72
2019-06-26T16:56:56.582Z,61.19
2019-06-26T16:59:22.905Z,61.02
2019-06-26T17:01:49.212Z,60.94
2019-06-26T17:04:15.543Z,61.42
2019-06-26T17:06:41.962Z,61.73
2019-06-26T17:09:08.530Z,61.92
2019-06-26T17:11:34.836Z,61.96
2019-06-26T17:14:01.205Z,62.26
2019-06-26T17:16:27.522Z,62.37
2019-06-26T17:18:53.826Z,62.28
2019-06-26T17:21:20.151Z,62.28
2019-06-26T17:23:46.462Z,62.84
2019-06-26T17:26:12.787Z,62.73
2019-06-26T17:28:39.096Z,62.92
2019-06-26T17:31:05.520Z,63.21
2019-06-26T17:33:31.822Z,63.78
2019-06-26T17:35:58.142Z,63.68
2019-06-26T17:38:24.471Z,63.95
2019-06-26T17:40:50.780Z,64.91
2019-06-26T17:43:17.109Z,64.95
2019-06-26T17:45:43.413Z,65.48
2019-06-26T17:48:09.740Z,65.78
2019-06-26T17:50:36.050Z,66.53
2019-06-26T17:53:02.375Z,66.48
2019-06-26T17:55:28.686Z,66.98
2019-06-26T17:57:54.990Z,67.35
2019-06-26T18:00:21.319Z,68.04
2019-06-26T18:02:47.620Z,68.23
2019-06-26T18:05:13.947Z,68.40
2019-06-26T18:07:40.274Z,68.63
2019-06-26T18:10:06.578Z,68.62
2019-06-26T18:12:32.903Z,68.91
2019-06-26T18:14:59.207Z,69.18
2019-06-26T18:17:25.518Z,69.61
2019-06-26T18:19:53.898Z,70.02
2019-06-26T18:22:18.142Z,70.44
2019-06-26T18:24:44.510Z,70.83
2019-06-26T18:27:10.781Z,71.35
2019-06-26T18:29:37.155Z,71.88
2019-06-26T18:32:03.466Z,71.82
2019-06-26T18:34:29.904Z,72.27
2019-06-26T18:36:56.116Z,72.70
2019-06-26T18:39:22.436Z,72.95
2019-06-26T18:41:48.763Z,72.95
2019-06-26T18:44:15.072Z,73.28
2019-06-26T18:46:41.392Z,74.19
2019-06-26T18:49:07.729Z,74.60
2019-06-26T18:51:34.029Z,74.98
2019-06-26T18:54:01.228Z,75.66
2019-06-26T18:56:26.679Z,76.03
2019-06-26T18:58:53.014Z,76.36
2019-06-26T19:01:19.353Z,76.57
2019-06-26T19:03:45.632Z,76.80
2019-06-26T19:06:11.996Z,76.88
2019-06-26T19:08:38.401Z,76.84
2019-06-26T19:11:04.760Z,76.71
2019-06-26T19:13:31.061Z,76.98
2019-06-26T19:15:57.370Z,76.81
2019-06-26T19:18:23.725Z,76.93
2019-06-26T19:20:50.001Z,77.13
2019-06-26T19:23:16.319Z,77.09
2019-06-26T19:25:42.649Z,76.72
2019-06-26T19:28:08.963Z,76.98
2019-06-26T19:30:35.288Z,77.14
2019-06-26T19:33:01.645Z,77.52
2019-06-26T19:35:27.933Z,77.70
2019-06-26T19:37:54.261Z,77.75
2019-06-26T19:40:23.834Z,77.70
2019-06-26T19:42:46.907Z,77.25
2019-06-26T19:45:13.259Z,76.81
2019-06-26T19:47:39.587Z,76.77
2019-06-26T19:50:05.892Z,75.77
2019-06-26T19:52:32.241Z,76.59
2019-06-26T19:54:58.554Z,75.87
2019-06-26T19:57:24.858Z,76.19
2019-06-26T19:59:51.194Z,76.56
2019-06-26T20:02:17.497Z,76.17
2019-06-26T20:04:43.821Z,76.43
2019-06-26T20:07:12.386Z,76.89
2019-06-26T20:09:48.265Z,77.18
2019-06-26T20:12:14.856Z,77.55
2019-06-26T20:14:43.615Z,77.95
2019-06-26T20:17:10.319Z,78.16
2019-06-26T20:19:37.166Z,78.51
2019-06-26T20:24:51.077Z,79.53
2019-06-26T20:27:19.664Z,80.09
2019-06-26T20:29:46.446Z,80.64
2019-06-26T20:32:15.045Z,80.93
2019-06-26T20:34:49.134Z,81.37
2019-06-26T20:37:15.883Z,81.67
2019-06-26T20:39:43.241Z,81.54
2019-06-26T20:42:10.969Z,81.57
2019-06-26T20:44:38.848Z,82.00
2019-06-26T20:47:08.305Z,82.67
2019-06-26T20:49:35.197Z,83.34
2019-06-26T20:52:02.395Z,83.94
2019-06-26T20:54:30.854Z,84.41
2019-06-26T20:56:57.794Z,84.83
2019-06-26T21:02:16.272Z,85.19
2019-06-26T21:04:43.210Z,85.33
2019-06-26T21:07:15.581Z,85.65
2019-06-26T21:09:42.078Z,85.70
2019-06-26T21:12:08.564Z,86.12
2019-06-26T21:14:35.040Z,86.26
2019-06-26T21:17:01.934Z,86.54
2019-06-26T21:19:28.846Z,86.69
2019-06-26T21:21:55.378Z,87.11
2019-06-26T21:24:21.897Z,87.52
2019-06-26T21:26:53.138Z,87.76
2019-06-26T21:29:19.562Z,87.89
2019-06-26T21:31:46.330Z,88.00
2019-06-26T21:34:14.003Z,88.08
2019-06-26T21:36:40.399Z,88.26
2019-06-26T21:39:07.004Z,88.31
2019-06-26T21:41:33.480Z,88.69
2019-06-26T21:44:01.473Z,89.19
2019-06-26T21:46:27.879Z,89.46
2019-06-26T21:48:54.320Z,89.80
2019-06-26T21:51:20.662Z,90.17
2019-06-26T21:53:47.071Z,90.77
2019-06-26T21:56:13.403Z,91.08
2019-06-26T21:58:39.715Z,91.40
2019-06-26T22:01:06.060Z,91.52
2019-06-26T22:03:32.385Z,91.71
2019-06-26T22:05:58.691Z,91.88
2019-06-26T22:08:25.053Z,92.12
2019-06-26T22:10:51.328Z,92.14
2019-06-26T22:13:17.637Z,92.29
2019-06-26T22:15:43.978Z,92.30
2019-06-26T22:18:10.274Z,92.74
2019-06-26T22:20:36.605Z,92.91
2019-06-26T22:23:02.917Z,92.55
2019-06-26T22:25:29.242Z,92.24
2019-06-26T22:27:55.553Z,92.26
2019-06-26T22:30:21.880Z,92.28
2019-06-26T22:32:48.203Z,92.83
2019-06-26T22:35:14.585Z,93.54
2019-06-26T22:37:40.911Z,94.49
2019-06-26T22:40:07.220Z,94.64
2019-06-26T22:42:33.544Z,94.71
2019-06-26T22:44:59.868Z,95.69
2019-06-26T22:47:26.186Z,95.71
2019-06-26T22:49:52.509Z,96.17
2019-06-26T22:52:18.815Z,95.84
2019-06-26T22:54:45.149Z,95.44
2019-06-26T22:57:11.463Z,95.25
2019-06-26T22:59:37.805Z,94.97
2019-06-26T23:02:04.126Z,94.93
2019-06-26T23:04:30.462Z,95.11
2019-06-26T23:06:56.777Z,95.28
2019-06-26T23:09:23.110Z,95.28
2019-06-26T23:11:49.442Z,95.53
2019-06-26T23:14:15.755Z,95.45
2019-06-26T23:16:42.085Z,95.45
2019-06-26T23:19:08.399Z,95.53
2019-06-26T23:21:34.718Z,95.22
2019-06-26T23:24:01.049Z,95.27
2019-06-26T23:26:27.361Z,95.68
2019-06-26T23:28:53.693Z,95.66
2019-06-26T23:31:20.031Z,96.02
2019-06-26T23:33:46.343Z,96.40
2019-06-26T23:36:12.673Z,96.48
2019-06-26T23:38:38.985Z,96.25
2019-06-26T23:41:05.322Z,96.40
2019-06-26T23:43:31.636Z,96.11
2019-06-26T23:45:57.969Z,95.76
2019-06-26T23:48:24.292Z,95.57
2019-06-26T23:50:50.593Z,95.46
2019-06-26T23:53:16.934Z,95.23
2019-06-26T23:55:43.239Z,95.11
2019-06-26T23:58:09.574Z,95.10
